Georgetown, Indiana
Current Conditions -  °F | °C
As of 4:56 PM on Monday 22 Dec 2014 (Local Time) from KSDF Reporting Station
Overcast Overcast  
Wind Chill: 52°   Ceiling: 3800
Heat Index: 52°   Visibility: 10mi
Dew Point: 42°   Wind: 8mph
Humidity: 69%   Direction: 100°E
Pressure: 29.76"   Gusts: NA
Location:  38.29°N, 85.98°W
Report Text: KSDF 222156Z 10007KT 10SM OVC038 11/06 A2976 RMK AO2 SLP079 T01110056
Loading
Personal Weather Stations






























Interactive Weather Map New forecast layout! Learn more

10-Day Weather Forecast

Advertisements
Track Severe Weather on mobile